Heron, Montana
Current Conditions -  °F | °C
As of 11:35 PM on Sunday 25 Jan 2015 (Local Time) from KSZT Reporting Station
Moderate Fog Moderate Fog  
Wind Chill: 34°   Ceiling: 200
Heat Index: 34°   Visibility: 0.25mi
Dew Point: 34°   Wind: 0mph
Humidity: 100%   Direction: NA
Pressure: 30.2"   Gusts: NA
Location:  48.06°N, 115.96°W
Report Text: KSZT 260635Z AUTO 00000KT 1/4SM FG OVC002 01/01 A3020 RMK AO2
Loading
Personal Weather Stations






























Interactive Weather Map New forecast layout! Learn more

10-Day Weather Forecast

Advertisements
Track Severe Weather on mobile